createdAt,value
2022-11-30T00:00:03.413Z,1019.19
2022-11-30T00:01:03.398Z,1019.15
2022-11-30T00:02:03.489Z,1019.11
2022-11-30T00:03:03.476Z,1019.15
2022-11-30T00:04:03.280Z,1019.12
2022-11-30T00:05:03.242Z,1019.18
2022-11-30T00:06:03.205Z,1019.15
2022-11-30T00:07:03.262Z,1019.14
2022-11-30T00:08:03.146Z,1019.15
2022-11-30T00:09:03.091Z,1019.09
2022-11-30T00:10:03.070Z,1019.15
2022-11-30T00:11:03.037Z,1019.11
2022-11-30T00:12:03.019Z,1019.13
2022-11-30T00:13:03.034Z,1019.14
2022-11-30T00:14:02.926Z,1019.13
2022-11-30T00:15:02.906Z,1019.18
2022-11-30T00:16:02.846Z,1019.17
2022-11-30T00:17:02.867Z,1019.21
2022-11-30T00:18:02.784Z,1019.17
2022-11-30T00:19:02.813Z,1019.14
2022-11-30T00:20:02.745Z,1019.20
2022-11-30T00:21:02.671Z,1019.21
2022-11-30T00:22:02.632Z,1019.26
2022-11-30T00:23:02.596Z,1019.25
2022-11-30T00:24:02.559Z,1019.27
2022-11-30T00:25:02.590Z,1019.25
2022-11-30T00:26:02.506Z,1019.25
2022-11-30T00:27:02.470Z,1019.32
2022-11-30T00:28:02.425Z,1019.32
2022-11-30T00:29:02.383Z,1019.29
2022-11-30T00:30:02.352Z,1019.30
2022-11-30T00:31:02.474Z,1019.28
2022-11-30T00:32:02.289Z,1019.25
2022-11-30T00:33:02.283Z,1019.25
2022-11-30T00:34:02.208Z,1019.26
2022-11-30T00:35:02.543Z,1019.24
2022-11-30T00:36:02.201Z,1019.27
2022-11-30T00:37:02.178Z,1019.23
2022-11-30T00:38:02.092Z,1019.22
2022-11-30T00:39:02.037Z,1019.25
2022-11-30T00:40:11.592Z,1019.26
2022-11-30T00:41:01.981Z,1019.26
2022-11-30T00:42:01.934Z,1019.25
2022-11-30T00:43:02.187Z,1019.23
2022-11-30T00:44:01.861Z,1019.26
2022-11-30T00:45:03.464Z,1019.20
2022-11-30T00:46:01.811Z,1019.25
2022-11-30T00:47:01.747Z,1019.24
2022-11-30T00:48:01.742Z,1019.25
2022-11-30T00:49:01.763Z,1019.26
2022-11-30T00:50:01.667Z,1019.28
2022-11-30T00:51:02.586Z,1019.28
2022-11-30T00:52:01.615Z,1019.31
2022-11-30T00:53:01.534Z,1019.34
2022-11-30T00:54:03.965Z,1019.34
2022-11-30T00:55:04.068Z,1019.35
2022-11-30T00:56:01.436Z,1019.38
2022-11-30T00:57:01.387Z,1019.36
2022-11-30T00:58:03.966Z,1019.34
2022-11-30T00:59:04.468Z,1019.38
2022-11-30T01:00:01.311Z,1019.39
2022-11-30T01:01:01.415Z,1019.37
2022-11-30T01:02:01.268Z,1019.39
2022-11-30T01:03:01.682Z,1019.41
2022-11-30T01:04:01.148Z,1019.41
2022-11-30T01:05:01.102Z,1019.39
2022-11-30T01:06:01.082Z,1019.45
2022-11-30T01:07:01.034Z,1019.48
2022-11-30T01:08:01.054Z,1019.48
2022-11-30T01:09:01.019Z,1019.45
2022-11-30T01:10:00.933Z,1019.46
2022-11-30T01:11:00.932Z,1019.43
2022-11-30T01:12:00.861Z,1019.41
2022-11-30T01:13:00.825Z,1019.41
2022-11-30T01:14:00.854Z,1019.45
2022-11-30T01:15:00.757Z,1019.41
2022-11-30T01:16:00.821Z,1019.41
2022-11-30T01:17:00.673Z,1019.46
2022-11-30T01:18:00.664Z,1019.44
2022-11-30T01:19:00.663Z,1019.44
2022-11-30T01:20:00.576Z,1019.44
2022-11-30T01:21:00.534Z,1019.45
2022-11-30T01:22:00.502Z,1019.47
2022-11-30T01:23:00.500Z,1019.43
2022-11-30T01:24:00.445Z,1019.51
2022-11-30T01:25:00.456Z,1019.51
2022-11-30T01:26:00.367Z,1019.52
2022-11-30T01:27:00.323Z,1019.49
2022-11-30T01:28:00.297Z,1019.52
2022-11-30T01:29:00.259Z,1019.55
2022-11-30T01:30:00.225Z,1019.53
2022-11-30T01:31:00.297Z,1019.52
2022-11-30T01:32:00.155Z,1019.53
2022-11-30T01:33:00.112Z,1019.54
2022-11-30T01:34:00.091Z,1019.53
2022-11-30T01:35:00.051Z,1019.54
2022-11-30T01:36:00.003Z,1019.55
2022-11-30T01:37:00.035Z,1019.56
2022-11-30T01:37:59.945Z,1019.56
2022-11-30T01:38:59.921Z,1019.58
2022-11-30T01:39:59.871Z,1019.53
2022-11-30T01:40:59.839Z,1019.55
2022-11-30T01:41:59.793Z,1019.54
2022-11-30T01:42:59.854Z,1019.55
2022-11-30T01:43:59.719Z,1019.56
2022-11-30T01:44:59.687Z,1019.56
2022-11-30T01:45:59.675Z,1019.60
2022-11-30T01:46:59.621Z,1019.57
2022-11-30T01:47:59.584Z,1019.57
2022-11-30T01:48:59.633Z,1019.54
2022-11-30T01:49:59.506Z,1019.59
2022-11-30T01:50:59.481Z,1019.56
2022-11-30T01:51:59.439Z,1019.58
2022-11-30T01:52:59.456Z,1019.53
2022-11-30T01:53:59.372Z,1019.54
2022-11-30T01:54:59.392Z,1019.54
2022-11-30T01:55:59.305Z,1019.51
2022-11-30T01:56:59.278Z,1019.50
2022-11-30T01:57:59.218Z,1019.51
2022-11-30T01:58:59.204Z,1019.53
2022-11-30T01:59:59.160Z,1019.55
2022-11-30T02:00:59.212Z,1019.57
2022-11-30T02:01:59.093Z,1019.59
2022-11-30T02:02:59.151Z,1019.58
2022-11-30T02:03:59.011Z,1019.60
2022-11-30T02:04:58.977Z,1019.66
2022-11-30T02:05:58.950Z,1019.66
2022-11-30T02:06:58.933Z,1019.67
2022-11-30T02:07:59.063Z,1019.67
2022-11-30T02:08:58.840Z,1019.67
2022-11-30T02:09:58.798Z,1019.68
2022-11-30T02:10:58.779Z,1019.68
2022-11-30T02:11:58.722Z,1019.69
2022-11-30T02:12:58.770Z,1019.69
2022-11-30T02:13:58.671Z,1019.64
2022-11-30T02:14:58.622Z,1019.63
2022-11-30T02:15:58.635Z,1019.65
2022-11-30T02:16:58.554Z,1019.63
2022-11-30T02:17:58.518Z,1019.60
2022-11-30T02:18:58.562Z,1019.60
2022-11-30T02:19:58.437Z,1019.59
2022-11-30T02:20:58.407Z,1019.58
2022-11-30T02:21:58.364Z,1019.54
2022-11-30T02:22:58.349Z,1019.54
2022-11-30T02:23:58.299Z,1019.53
2022-11-30T02:24:58.343Z,1019.55
2022-11-30T02:25:58.224Z,1019.55
2022-11-30T02:26:58.197Z,1019.55
2022-11-30T02:27:58.172Z,1019.60
2022-11-30T02:28:58.122Z,1019.59
2022-11-30T02:29:58.594Z,1019.63
2022-11-30T02:30:58.171Z,1019.63
2022-11-30T02:31:58.018Z,1019.61
2022-11-30T02:32:57.974Z,1019.60
2022-11-30T02:33:57.936Z,1019.67
2022-11-30T02:34:57.909Z,1019.64
2022-11-30T02:35:57.870Z,1019.64
2022-11-30T02:36:57.904Z,1019.59
2022-11-30T02:37:57.800Z,1019.60
2022-11-30T02:38:57.768Z,1019.61
2022-11-30T02:39:57.737Z,1019.58
2022-11-30T02:40:57.805Z,1019.64
2022-11-30T02:41:57.673Z,1019.60
2022-11-30T02:42:57.683Z,1019.56
2022-11-30T02:43:57.581Z,1019.62
2022-11-30T02:44:57.573Z,1019.63
2022-11-30T02:45:57.566Z,1019.61
2022-11-30T02:46:57.495Z,1019.62
2022-11-30T02:47:57.457Z,1019.61
2022-11-30T02:48:57.473Z,1019.59
2022-11-30T02:49:57.377Z,1019.59
2022-11-30T02:50:57.342Z,1019.62
2022-11-30T02:51:57.297Z,1019.61
2022-11-30T02:52:57.270Z,1019.60
2022-11-30T02:53:57.248Z,1019.61
2022-11-30T02:54:57.254Z,1019.65
2022-11-30T02:55:57.157Z,1019.64
2022-11-30T02:56:57.131Z,1019.68
2022-11-30T02:57:57.085Z,1019.68
2022-11-30T02:58:57.074Z,1019.67
2022-11-30T02:59:57.034Z,1019.72
2022-11-30T03:00:57.069Z,1019.68
2022-11-30T03:01:56.997Z,1019.68
2022-11-30T03:02:56.940Z,1019.69
2022-11-30T03:03:56.877Z,1019.71
2022-11-30T03:04:56.852Z,1019.74
2022-11-30T03:05:56.881Z,1019.74
2022-11-30T03:06:56.772Z,1019.72
2022-11-30T03:07:56.749Z,1019.73
2022-11-30T03:08:56.700Z,1019.73
2022-11-30T03:09:56.674Z,1019.72
2022-11-30T03:10:56.652Z,1019.73
2022-11-30T03:11:56.666Z,1019.75
2022-11-30T03:12:56.576Z,1019.72
2022-11-30T03:13:56.520Z,1019.74
2022-11-30T03:14:56.486Z,1019.70
2022-11-30T03:15:56.581Z,1019.71
2022-11-30T03:16:56.481Z,1019.70
2022-11-30T03:17:56.394Z,1019.70
2022-11-30T03:18:56.347Z,1019.68
2022-11-30T03:19:56.311Z,1019.70
2022-11-30T03:20:56.283Z,1019.69
2022-11-30T03:21:56.320Z,1019.73
2022-11-30T03:22:56.214Z,1019.69
2022-11-30T03:23:56.176Z,1019.76
2022-11-30T03:24:56.136Z,1019.71
2022-11-30T03:25:56.100Z,1019.71
2022-11-30T03:26:56.065Z,1019.72
2022-11-30T03:27:56.072Z,1019.66
2022-11-30T03:28:55.991Z,1019.73
2022-11-30T03:29:55.961Z,1019.71
2022-11-30T03:30:55.947Z,1019.72
2022-11-30T03:31:55.879Z,1019.67
2022-11-30T03:32:55.860Z,1019.69
2022-11-30T03:33:55.864Z,1019.73
2022-11-30T03:34:55.777Z,1019.73
2022-11-30T03:35:55.742Z,1019.73
2022-11-30T03:36:55.749Z,1019.76
2022-11-30T03:37:55.674Z,1019.77
2022-11-30T03:38:55.649Z,1019.77
2022-11-30T03:39:58.387Z,1019.78
2022-11-30T03:40:55.557Z,1019.77
2022-11-30T03:41:55.524Z,1019.76
2022-11-30T03:42:55.493Z,1019.76
2022-11-30T03:43:55.461Z,1019.74
2022-11-30T03:44:55.415Z,1019.78
2022-11-30T03:45:55.443Z,1019.78
2022-11-30T03:46:55.366Z,1019.76
2022-11-30T03:47:55.317Z,1019.77
2022-11-30T03:48:55.278Z,1019.76
2022-11-30T03:49:55.249Z,1019.79
2022-11-30T03:50:55.200Z,1019.82
2022-11-30T03:51:55.231Z,1019.82
2022-11-30T03:52:55.139Z,1019.81
2022-11-30T03:53:55.099Z,1019.77
2022-11-30T03:54:55.064Z,1019.83
2022-11-30T03:55:55.038Z,1019.88
2022-11-30T03:56:55.001Z,1019.87
2022-11-30T03:57:55.032Z,1019.83
2022-11-30T03:58:54.925Z,1019.86
2022-11-30T03:59:54.890Z,1019.86
2022-11-30T04:00:54.848Z,1019.87
2022-11-30T04:01:54.964Z,1019.85
2022-11-30T04:02:54.821Z,1019.84
2022-11-30T04:03:54.795Z,1019.87
2022-11-30T04:04:54.708Z,1019.88
2022-11-30T04:05:54.684Z,1019.89
2022-11-30T04:06:54.624Z,1019.89
2022-11-30T04:07:54.656Z,1019.88
2022-11-30T04:08:54.557Z,1019.86
2022-11-30T04:09:54.585Z,1019.89
2022-11-30T04:10:54.495Z,1019.89
2022-11-30T04:11:54.472Z,1019.92
2022-11-30T04:12:54.422Z,1019.95
2022-11-30T04:13:54.410Z,1019.95
2022-11-30T04:14:54.363Z,1019.93
2022-11-30T04:15:54.424Z,1019.97
2022-11-30T04:16:54.290Z,1019.97
2022-11-30T04:17:54.245Z,1019.97
2022-11-30T04:18:54.201Z,1019.98
2022-11-30T04:19:54.173Z,1019.98
2022-11-30T04:20:54.190Z,1019.97
2022-11-30T04:21:54.103Z,1019.98
2022-11-30T04:22:54.053Z,1019.96
2022-11-30T04:23:54.091Z,1019.96
2022-11-30T04:24:53.999Z,1020.00
2022-11-30T04:25:53.954Z,1019.98
2022-11-30T04:26:53.927Z,1019.97
2022-11-30T04:27:53.899Z,1020.00
2022-11-30T04:28:53.918Z,1019.96
2022-11-30T04:29:53.813Z,1019.98
2022-11-30T04:30:53.839Z,1020.00
2022-11-30T04:31:53.741Z,1020.00
2022-11-30T04:32:53.712Z,1020.02
2022-11-30T04:33:53.667Z,1020.03
2022-11-30T04:34:53.697Z,1020.03
2022-11-30T04:35:53.595Z,1020.08
2022-11-30T04:36:58.760Z,1020.08
2022-11-30T04:37:53.532Z,1020.09
2022-11-30T04:38:53.505Z,1020.09
2022-11-30T04:39:53.459Z,1020.12
2022-11-30T04:40:53.477Z,1020.10
2022-11-30T04:41:53.398Z,1020.14
2022-11-30T04:42:53.371Z,1020.12
2022-11-30T04:43:54.146Z,1020.14
2022-11-30T04:44:53.281Z,1020.13
2022-11-30T04:45:53.247Z,1020.19
2022-11-30T04:46:53.305Z,1020.12
2022-11-30T04:47:53.180Z,1020.14
2022-11-30T04:48:53.127Z,1020.19
2022-11-30T04:49:53.118Z,1020.20
2022-11-30T04:50:53.052Z,1020.19
2022-11-30T04:51:53.097Z,1020.20
2022-11-30T04:52:52.995Z,1020.13
2022-11-30T04:53:52.986Z,1020.20
2022-11-30T04:54:52.917Z,1020.16
2022-11-30T04:55:52.883Z,1020.19
2022-11-30T04:56:52.854Z,1020.16
2022-11-30T04:57:52.909Z,1020.14
2022-11-30T04:58:52.791Z,1020.14
2022-11-30T04:59:52.752Z,1020.18
2022-11-30T05:00:52.694Z,1020.12
2022-11-30T05:01:52.687Z,1020.10
2022-11-30T05:02:53.385Z,1020.10
2022-11-30T05:03:52.603Z,1020.10
2022-11-30T05:04:52.635Z,1020.11
2022-11-30T05:05:52.530Z,1020.12
2022-11-30T05:06:52.506Z,1020.13
2022-11-30T05:07:52.536Z,1020.11
2022-11-30T05:08:52.425Z,1020.14
2022-11-30T05:09:52.384Z,1020.21
2022-11-30T05:10:53.280Z,1020.18
2022-11-30T05:11:52.321Z,1020.24
2022-11-30T05:12:52.334Z,1020.25
2022-11-30T05:13:52.303Z,1020.21
2022-11-30T05:14:52.203Z,1020.26
2022-11-30T05:15:52.216Z,1020.27
2022-11-30T05:16:52.161Z,1020.30
2022-11-30T05:17:52.100Z,1020.31
2022-11-30T05:18:52.056Z,1020.29
2022-11-30T05:19:52.088Z,1020.32
2022-11-30T05:20:51.987Z,1020.36
2022-11-30T05:21:51.952Z,1020.40
2022-11-30T05:22:51.916Z,1020.37
2022-11-30T05:23:51.889Z,1020.38
2022-11-30T05:24:51.848Z,1020.40
2022-11-30T05:25:51.872Z,1020.39
2022-11-30T05:26:51.770Z,1020.39
2022-11-30T05:27:51.767Z,1020.41
2022-11-30T05:28:51.697Z,1020.45
2022-11-30T05:29:51.678Z,1020.44
2022-11-30T05:30:51.693Z,1020.47
2022-11-30T05:31:51.636Z,1020.48
2022-11-30T05:32:51.553Z,1020.46
2022-11-30T05:33:51.531Z,1020.48
2022-11-30T05:34:52.081Z,1020.47
2022-11-30T05:35:51.458Z,1020.47
2022-11-30T05:36:51.485Z,1020.50
2022-11-30T05:37:51.382Z,1020.48
2022-11-30T05:38:51.344Z,1020.49
2022-11-30T05:39:51.310Z,1020.49
2022-11-30T05:40:51.269Z,1020.51
2022-11-30T05:41:51.237Z,1020.50
2022-11-30T05:42:51.254Z,1020.50
2022-11-30T05:43:51.164Z,1020.53
2022-11-30T05:44:51.308Z,1020.49
2022-11-30T05:45:51.098Z,1020.54
2022-11-30T05:46:51.060Z,1020.51
2022-11-30T05:47:51.023Z,1020.52
2022-11-30T05:48:51.040Z,1020.53
2022-11-30T05:49:50.946Z,1020.50
2022-11-30T05:50:51.033Z,1020.47
2022-11-30T05:51:50.878Z,1020.48
2022-11-30T05:52:50.844Z,1020.50
2022-11-30T05:53:50.819Z,1020.51
2022-11-30T05:54:50.823Z,1020.53
2022-11-30T05:55:50.750Z,1020.53
2022-11-30T05:56:54.774Z,1020.56
2022-11-30T05:57:50.669Z,1020.55
2022-11-30T05:58:50.625Z,1020.57
2022-11-30T05:59:50.599Z,1020.56
2022-11-30T06:00:50.628Z,1020.58
2022-11-30T06:01:50.584Z,1020.57
2022-11-30T06:02:50.584Z,1020.58
2022-11-30T06:03:50.454Z,1020.63
2022-11-30T06:04:50.414Z,1020.62
2022-11-30T06:05:50.377Z,1020.61
2022-11-30T06:06:50.398Z,1020.64
2022-11-30T06:07:50.347Z,1020.64
2022-11-30T06:08:50.267Z,1020.67
2022-11-30T06:09:50.236Z,1020.62
2022-11-30T06:10:50.196Z,1020.70
2022-11-30T06:11:50.167Z,1020.70
2022-11-30T06:12:50.186Z,1020.71
2022-11-30T06:13:50.097Z,1020.69
2022-11-30T06:14:50.080Z,1020.69
2022-11-30T06:15:50.019Z,1020.72
2022-11-30T06:16:50.023Z,1020.72
2022-11-30T06:17:49.948Z,1020.72
2022-11-30T06:18:49.968Z,1020.73
2022-11-30T06:19:49.878Z,1020.70
2022-11-30T06:20:49.841Z,1020.72
2022-11-30T06:21:49.812Z,1020.73
2022-11-30T06:22:49.764Z,1020.74
2022-11-30T06:23:49.733Z,1020.73
2022-11-30T06:24:49.944Z,1020.75
2022-11-30T06:25:49.673Z,1020.77
2022-11-30T06:26:49.625Z,1020.75
2022-11-30T06:27:49.592Z,1020.78
2022-11-30T06:28:49.552Z,1020.77
2022-11-30T06:29:49.534Z,1020.76
2022-11-30T06:30:49.532Z,1020.81
2022-11-30T06:31:49.509Z,1020.77
2022-11-30T06:32:49.422Z,1020.82
2022-11-30T06:33:49.368Z,1020.77
2022-11-30T06:34:49.585Z,1020.80
2022-11-30T06:35:49.335Z,1020.81
2022-11-30T06:36:49.312Z,1020.82
2022-11-30T06:37:49.265Z,1020.81
2022-11-30T06:38:49.203Z,1020.83
2022-11-30T06:40:49.180Z,1020.86
2022-11-30T06:41:54.308Z,1020.82
2022-11-30T06:42:49.127Z,1020.88
2022-11-30T06:43:49.011Z,1020.90
2022-11-30T06:44:49.392Z,1020.89
2022-11-30T06:45:48.994Z,1020.91
2022-11-30T06:46:48.911Z,1020.88
2022-11-30T06:47:48.867Z,1020.87
2022-11-30T06:48:48.915Z,1020.90
2022-11-30T06:49:48.804Z,1020.89
2022-11-30T06:50:50.277Z,1020.89
2022-11-30T06:51:48.722Z,1020.91
2022-11-30T06:52:48.927Z,1020.91
2022-11-30T06:53:48.652Z,1020.91
2022-11-30T06:54:48.905Z,1020.92
2022-11-30T06:55:48.590Z,1020.90
2022-11-30T06:56:48.549Z,1020.95
2022-11-30T06:57:48.577Z,1020.94
2022-11-30T06:58:48.484Z,1020.98
2022-11-30T06:59:48.432Z,1020.99
2022-11-30T07:00:48.545Z,1021.00
2022-11-30T07:01:48.372Z,1020.99
2022-11-30T07:02:48.343Z,1021.02
2022-11-30T07:03:48.339Z,1021.02
2022-11-30T07:04:48.551Z,1021.01
2022-11-30T07:05:48.223Z,1021.07
2022-11-30T07:06:48.252Z,1021.05
2022-11-30T07:07:48.212Z,1021.06
2022-11-30T07:08:48.126Z,1021.04
2022-11-30T07:09:48.086Z,1021.06
2022-11-30T07:10:48.050Z,1021.07
2022-11-30T07:11:48.014Z,1021.08
2022-11-30T07:12:48.026Z,1021.09
2022-11-30T07:13:47.950Z,1021.13
2022-11-30T07:14:48.215Z,1021.17
2022-11-30T07:15:47.870Z,1021.15
2022-11-30T07:16:48.134Z,1021.15
2022-11-30T07:17:48.090Z,1021.18
2022-11-30T07:18:47.816Z,1021.17
2022-11-30T07:19:47.729Z,1021.22
2022-11-30T07:20:47.695Z,1021.26
2022-11-30T07:21:47.651Z,1021.28
2022-11-30T07:22:47.701Z,1021.25
2022-11-30T07:23:52.299Z,1021.29
2022-11-30T07:24:47.918Z,1021.29
2022-11-30T07:25:47.504Z,1021.28
2022-11-30T07:26:47.477Z,1021.31
2022-11-30T07:27:47.439Z,1021.32
2022-11-30T07:28:48.148Z,1021.32
2022-11-30T07:29:47.368Z,1021.33
2022-11-30T07:30:47.385Z,1021.33
2022-11-30T07:31:47.365Z,1021.40
2022-11-30T07:32:47.269Z,1021.40
2022-11-30T07:33:47.223Z,1021.39
2022-11-30T07:34:47.491Z,1021.40
2022-11-30T07:35:47.154Z,1021.40
2022-11-30T07:36:47.172Z,1021.41
2022-11-30T07:37:47.081Z,1021.40
2022-11-30T07:38:47.049Z,1021.37
2022-11-30T07:39:47.013Z,1021.44
2022-11-30T07:40:46.976Z,1021.42
2022-11-30T07:41:46.939Z,1021.45
2022-11-30T07:42:46.965Z,1021.37
2022-11-30T07:43:46.868Z,1021.41
2022-11-30T07:44:47.045Z,1021.40
2022-11-30T07:45:46.879Z,1021.44
2022-11-30T07:46:46.763Z,1021.41
2022-11-30T07:47:46.728Z,1021.40
2022-11-30T07:48:46.741Z,1021.42
2022-11-30T07:49:46.651Z,1021.43
2022-11-30T07:50:46.619Z,1021.38
2022-11-30T07:51:46.580Z,1021.41
2022-11-30T07:52:46.549Z,1021.41
2022-11-30T07:53:46.514Z,1021.42
2022-11-30T07:54:47.030Z,1021.47
2022-11-30T07:55:46.436Z,1021.44
2022-11-30T07:56:46.401Z,1021.48
2022-11-30T07:57:46.363Z,1021.46
2022-11-30T07:58:46.337Z,1021.46
2022-11-30T07:59:46.603Z,1021.45
2022-11-30T08:00:46.418Z,1021.40
2022-11-30T08:01:46.343Z,1021.41
2022-11-30T08:02:46.188Z,1021.43
2022-11-30T08:03:46.152Z,1021.42
2022-11-30T08:04:46.498Z,1021.40
2022-11-30T08:05:46.101Z,1021.40
2022-11-30T08:06:46.102Z,1021.43
2022-11-30T08:07:46.030Z,1021.43
2022-11-30T08:08:45.979Z,1021.44
2022-11-30T08:09:45.940Z,1021.43
2022-11-30T08:10:45.902Z,1021.45
2022-11-30T08:11:45.865Z,1021.45
2022-11-30T08:12:45.913Z,1021.46
2022-11-30T08:13:45.795Z,1021.51
2022-11-30T08:15:18.067Z,1021.47
2022-11-30T08:15:45.724Z,1021.47
2022-11-30T08:16:45.760Z,1021.52
2022-11-30T08:17:45.652Z,1021.52
2022-11-30T08:18:45.696Z,1021.54
2022-11-30T08:19:45.582Z,1021.54
2022-11-30T08:20:49.860Z,1021.51
2022-11-30T08:21:45.511Z,1021.55
2022-11-30T08:22:45.485Z,1021.55
2022-11-30T08:23:45.468Z,1021.54
2022-11-30T08:24:45.462Z,1021.51
2022-11-30T08:25:45.485Z,1021.56
2022-11-30T08:26:45.349Z,1021.54
2022-11-30T08:27:45.297Z,1021.57
2022-11-30T08:28:45.271Z,1021.60
2022-11-30T08:29:45.229Z,1021.58
2022-11-30T08:30:45.316Z,1021.61
2022-11-30T08:31:45.152Z,1021.62
2022-11-30T08:32:45.127Z,1021.62
2022-11-30T08:33:45.084Z,1021.64
2022-11-30T08:34:45.240Z,1021.64
2022-11-30T08:35:45.017Z,1021.60
2022-11-30T08:36:47.223Z,1021.66
2022-11-30T08:37:44.939Z,1021.65
2022-11-30T08:38:44.914Z,1021.67
2022-11-30T08:39:44.870Z,1021.70
2022-11-30T08:40:44.842Z,1021.69
2022-11-30T08:41:44.798Z,1021.72
2022-11-30T08:42:44.837Z,1021.73
2022-11-30T08:43:44.744Z,1021.73
2022-11-30T08:44:44.741Z,1021.68
2022-11-30T08:45:44.736Z,1021.70
2022-11-30T08:46:52.700Z,1021.74
2022-11-30T08:47:44.589Z,1021.72
2022-11-30T08:48:44.628Z,1021.72
2022-11-30T08:49:44.520Z,1021.75
2022-11-30T08:50:44.489Z,1021.75
2022-11-30T08:52:15.514Z,1021.77
2022-11-30T08:52:44.418Z,1021.78
2022-11-30T08:53:44.384Z,1021.79
2022-11-30T08:54:44.394Z,1021.79
2022-11-30T08:55:44.300Z,1021.79
2022-11-30T08:56:44.275Z,1021.80
2022-11-30T08:57:44.234Z,1021.76
2022-11-30T08:58:44.211Z,1021.79
2022-11-30T08:59:44.159Z,1021.81
2022-11-30T09:00:44.187Z,1021.79
2022-11-30T09:01:44.092Z,1021.80
2022-11-30T09:02:44.087Z,1021.81
2022-11-30T09:03:44.019Z,1021.78
2022-11-30T09:04:44.050Z,1021.75
2022-11-30T09:05:43.952Z,1021.77
2022-11-30T09:06:44.004Z,1021.78
2022-11-30T09:07:43.953Z,1021.77
2022-11-30T09:08:43.849Z,1021.78
2022-11-30T09:09:43.881Z,1021.81
2022-11-30T09:10:43.778Z,1021.80
2022-11-30T09:11:43.743Z,1021.86
2022-11-30T09:12:43.755Z,1021.90
2022-11-30T09:13:43.755Z,1021.85
2022-11-30T09:14:43.652Z,1021.89
2022-11-30T09:15:43.779Z,1021.92
2022-11-30T09:16:43.568Z,1021.92
2022-11-30T09:17:43.593Z,1021.87
2022-11-30T09:18:43.503Z,1021.90
2022-11-30T09:19:43.529Z,1021.91
2022-11-30T09:20:43.467Z,1021.87
2022-11-30T09:21:51.019Z,1021.93
2022-11-30T09:22:43.409Z,1021.89
2022-11-30T09:23:43.320Z,1021.89
2022-11-30T09:24:43.321Z,1021.88
2022-11-30T09:25:43.251Z,1021.90
2022-11-30T09:26:43.219Z,1021.94
2022-11-30T09:27:43.245Z,1021.92
2022-11-30T09:28:43.207Z,1021.92
2022-11-30T09:29:43.109Z,1021.93
2022-11-30T09:30:43.134Z,1021.93
2022-11-30T09:31:43.045Z,1021.91
2022-11-30T09:32:43.020Z,1021.96
2022-11-30T09:33:43.028Z,1021.92
2022-11-30T09:34:43.024Z,1021.92
2022-11-30T09:35:42.901Z,1021.90
2022-11-30T09:36:42.876Z,1021.88
2022-11-30T09:37:42.833Z,1021.87
2022-11-30T09:38:42.799Z,1021.86
2022-11-30T09:39:42.917Z,1021.88
2022-11-30T09:40:42.728Z,1021.85
2022-11-30T09:41:42.697Z,1021.88
2022-11-30T09:42:42.657Z,1021.86
2022-11-30T09:43:42.629Z,1021.88
2022-11-30T09:44:42.589Z,1021.84
2022-11-30T09:45:42.911Z,1021.84
2022-11-30T09:46:42.520Z,1021.87
2022-11-30T09:47:42.494Z,1021.85
2022-11-30T09:48:42.451Z,1021.88
2022-11-30T09:49:42.418Z,1021.89
2022-11-30T09:50:42.381Z,1021.88
2022-11-30T09:51:42.821Z,1021.89
2022-11-30T09:52:42.313Z,1021.88
2022-11-30T09:53:42.282Z,1021.87
2022-11-30T09:54:42.249Z,1021.90
2022-11-30T09:55:42.215Z,1021.91
2022-11-30T09:56:42.323Z,1021.89
2022-11-30T09:57:42.200Z,1021.87
2022-11-30T09:58:42.110Z,1021.89
2022-11-30T09:59:42.077Z,1021.88
2022-11-30T10:00:42.039Z,1021.86
2022-11-30T10:01:45.694Z,1021.86
2022-11-30T10:02:42.062Z,1021.87
2022-11-30T10:03:42.060Z,1021.84
2022-11-30T10:04:41.908Z,1021.88
2022-11-30T10:05:41.868Z,1021.79
2022-11-30T10:06:41.830Z,1021.83
2022-11-30T10:07:41.855Z,1021.80
2022-11-30T10:08:46.046Z,1021.79
2022-11-30T10:09:41.787Z,1021.81
2022-11-30T10:10:41.703Z,1021.82
2022-11-30T10:11:41.659Z,1021.77
2022-11-30T10:12:41.634Z,1021.78
2022-11-30T10:13:41.666Z,1021.75
2022-11-30T10:14:41.558Z,1021.80
2022-11-30T10:15:41.604Z,1021.80
2022-11-30T10:16:41.490Z,1021.79
2022-11-30T10:17:41.459Z,1021.77
2022-11-30T10:18:41.511Z,1021.79
2022-11-30T10:19:41.393Z,1021.76
2022-11-30T10:20:41.357Z,1021.74
2022-11-30T10:21:41.388Z,1021.76
2022-11-30T10:22:41.294Z,1021.77
2022-11-30T10:23:41.256Z,1021.76
2022-11-30T10:24:41.216Z,1021.74
2022-11-30T10:25:41.190Z,1021.77
2022-11-30T10:26:41.153Z,1021.76
2022-11-30T10:27:41.176Z,1021.72
2022-11-30T10:28:48.867Z,1021.75
2022-11-30T10:29:41.055Z,1021.72
2022-11-30T10:30:41.091Z,1021.76
2022-11-30T10:31:40.985Z,1021.78
2022-11-30T10:32:40.955Z,1021.75
2022-11-30T10:33:40.985Z,1021.79
2022-11-30T10:34:40.891Z,1021.81
2022-11-30T10:35:40.856Z,1021.75
2022-11-30T10:36:40.810Z,1021.83
2022-11-30T10:37:40.785Z,1021.78
2022-11-30T10:38:40.752Z,1021.80
2022-11-30T10:39:40.766Z,1021.77
2022-11-30T10:40:40.803Z,1021.78
2022-11-30T10:41:40.644Z,1021.76
2022-11-30T10:42:40.812Z,1021.80
2022-11-30T10:43:40.577Z,1021.76
2022-11-30T10:44:40.537Z,1021.76
2022-11-30T10:45:40.562Z,1021.72
2022-11-30T10:46:40.498Z,1021.74
2022-11-30T10:47:40.445Z,1021.75
2022-11-30T10:48:40.412Z,1021.75
2022-11-30T10:49:40.364Z,1021.73
2022-11-30T10:50:40.334Z,1021.71
2022-11-30T10:51:40.368Z,1021.74
2022-11-30T10:52:40.271Z,1021.77
2022-11-30T10:53:40.233Z,1021.76
2022-11-30T10:54:40.253Z,1021.75
2022-11-30T10:55:40.169Z,1021.78
2022-11-30T10:56:40.130Z,1021.82
2022-11-30T10:57:40.152Z,1021.78
2022-11-30T10:58:40.060Z,1021.80
2022-11-30T10:59:40.130Z,1021.80
2022-11-30T11:00:40.000Z,1021.76
2022-11-30T11:01:40.005Z,1021.73
2022-11-30T11:02:39.991Z,1021.79
2022-11-30T11:03:39.966Z,1021.79
2022-11-30T11:04:39.906Z,1021.79
2022-11-30T11:05:39.839Z,1021.81
2022-11-30T11:06:39.812Z,1021.81
2022-11-30T11:07:39.778Z,1021.83
2022-11-30T11:08:39.733Z,1021.81
2022-11-30T11:09:39.756Z,1021.82
2022-11-30T11:10:39.668Z,1021.81
2022-11-30T11:11:39.624Z,1021.85
2022-11-30T11:12:39.587Z,1021.86
2022-11-30T11:13:39.845Z,1021.82
2022-11-30T11:14:40.002Z,1021.86
2022-11-30T11:15:39.850Z,1021.85
2022-11-30T11:16:39.455Z,1021.84
2022-11-30T11:17:39.420Z,1021.82
2022-11-30T11:18:39.384Z,1021.79
2022-11-30T11:19:39.352Z,1021.84
2022-11-30T11:20:39.370Z,1021.85
2022-11-30T11:21:39.284Z,1021.89
2022-11-30T11:22:39.263Z,1021.85
2022-11-30T11:23:39.218Z,1021.84
2022-11-30T11:24:39.179Z,1021.86
2022-11-30T11:25:39.753Z,1021.85
2022-11-30T11:26:39.113Z,1021.82
2022-11-30T11:27:44.591Z,1021.81
2022-11-30T11:28:39.139Z,1021.85
2022-11-30T11:29:39.021Z,1021.84
2022-11-30T11:30:39.049Z,1021.85
2022-11-30T11:31:38.972Z,1021.83
2022-11-30T11:32:39.696Z,1021.83
2022-11-30T11:33:38.884Z,1021.87
2022-11-30T11:34:38.854Z,1021.84
2022-11-30T11:35:38.826Z,1021.81
2022-11-30T11:36:38.831Z,1021.82
2022-11-30T11:37:38.769Z,1021.85
2022-11-30T11:38:38.715Z,1021.85
2022-11-30T11:39:38.692Z,1021.86
2022-11-30T11:40:38.654Z,1021.88
2022-11-30T11:41:38.686Z,1021.89
2022-11-30T11:42:38.631Z,1021.92
2022-11-30T11:43:38.544Z,1021.88
2022-11-30T11:44:38.511Z,1021.90
2022-11-30T11:45:38.481Z,1021.89
2022-11-30T11:46:38.554Z,1021.93
2022-11-30T11:47:38.417Z,1021.91
2022-11-30T11:48:38.427Z,1021.89
2022-11-30T11:49:38.348Z,1021.86
2022-11-30T11:51:08.554Z,1021.88
2022-11-30T11:51:38.309Z,1021.87
2022-11-30T11:52:38.242Z,1021.83
2022-11-30T11:53:44.032Z,1021.88
2022-11-30T11:54:38.256Z,1021.90
2022-11-30T11:55:38.159Z,1021.87
2022-11-30T11:56:38.149Z,1021.89
2022-11-30T11:57:38.078Z,1021.88
2022-11-30T11:58:38.046Z,1021.91
2022-11-30T11:59:38.007Z,1021.91
2022-11-30T12:00:38.025Z,1021.89
2022-11-30T12:01:40.458Z,1021.91
2022-11-30T12:02:37.967Z,1021.95
2022-11-30T12:03:37.878Z,1021.94
2022-11-30T12:04:37.874Z,1021.97
2022-11-30T12:05:37.862Z,1021.98